createdAt,value
2022-08-26T00:02:20.557Z,1.50
2022-08-26T00:04:50.493Z,1.40
2022-08-26T00:07:19.304Z,1.50
2022-08-26T00:09:47.644Z,2.03
2022-08-26T00:12:16.641Z,2.17
2022-08-26T00:14:44.977Z,1.52
2022-08-26T00:17:13.591Z,1.20
2022-08-26T00:19:41.949Z,1.75
2022-08-26T00:22:13.998Z,2.10
2022-08-26T00:24:49.863Z,1.60
2022-08-26T00:27:18.238Z,2.58
2022-08-26T00:29:46.628Z,3.33
2022-08-26T00:32:14.952Z,2.00
2022-08-26T00:34:43.361Z,1.92
2022-08-26T00:37:16.141Z,2.90
2022-08-26T00:39:44.663Z,1.80
2022-08-26T00:42:14.165Z,3.03
2022-08-26T00:44:42.586Z,4.47
2022-08-26T00:47:22.597Z,3.03
2022-08-26T00:49:52.703Z,3.05
2022-08-26T00:52:24.229Z,3.83
2022-08-26T00:55:01.377Z,3.92
2022-08-26T00:57:32.087Z,5.13
2022-08-26T01:00:05.232Z,3.60
2022-08-26T01:02:33.668Z,3.65
2022-08-26T01:05:05.166Z,5.22
2022-08-26T01:07:36.327Z,5.57
2022-08-26T01:10:10.611Z,3.65
2022-08-26T01:12:43.853Z,5.55
2022-08-26T01:15:18.200Z,4.38
2022-08-26T01:17:46.591Z,5.03
2022-08-26T01:20:35.191Z,4.50
2022-08-26T01:23:08.954Z,3.45
2022-08-26T01:25:43.038Z,6.37
2022-08-26T01:28:17.347Z,5.90
2022-08-26T01:30:50.983Z,8.60
2022-08-26T01:33:24.582Z,7.53
2022-08-26T01:35:53.417Z,4.13
2022-08-26T01:38:23.723Z,4.57
2022-08-26T01:40:52.557Z,6.80
2022-08-26T01:43:28.347Z,3.83
2022-08-26T01:45:57.094Z,6.90
2022-08-26T01:48:31.840Z,5.78
2022-08-26T01:51:02.276Z,7.50
2022-08-26T01:53:32.406Z,8.02
2022-08-26T01:56:03.379Z,6.30
2022-08-26T01:58:37.590Z,6.05
2022-08-26T02:01:07.263Z,9.93
2022-08-26T02:03:59.836Z,9.65
2022-08-26T02:06:28.356Z,7.88
2022-08-26T02:09:02.008Z,5.28
2022-08-26T02:11:30.364Z,8.67
2022-08-26T02:14:04.426Z,5.53
2022-08-26T02:16:42.445Z,6.43
2022-08-26T02:19:17.217Z,9.48
2022-08-26T02:21:50.990Z,6.03
2022-08-26T02:24:27.498Z,4.63
2022-08-26T02:26:57.660Z,4.65
2022-08-26T02:29:33.596Z,4.97
2022-08-26T02:32:02.216Z,4.57
2022-08-26T02:34:33.030Z,7.97
2022-08-26T02:37:05.382Z,7.65
2022-08-26T02:39:37.747Z,8.20
2022-08-26T02:42:06.626Z,8.23
2022-08-26T02:44:35.255Z,5.43
2022-08-26T02:47:03.801Z,6.18
2022-08-26T02:49:33.653Z,10.02
2022-08-26T02:52:02.127Z,7.72
2022-08-26T02:54:30.546Z,8.70
2022-08-26T02:57:00.463Z,9.00
2022-08-26T02:59:29.291Z,5.35
2022-08-26T03:01:58.628Z,5.33
2022-08-26T03:04:27.027Z,6.97
2022-08-26T03:06:56.247Z,8.00
2022-08-26T03:09:24.918Z,5.78
2022-08-26T03:11:55.527Z,6.70
2022-08-26T03:14:26.185Z,6.38
2022-08-26T03:16:55.655Z,5.10
2022-08-26T03:19:25.714Z,4.93
2022-08-26T03:21:57.809Z,5.00
2022-08-26T03:24:27.568Z,8.75
2022-08-26T03:26:56.009Z,5.47
2022-08-26T03:29:43.542Z,8.38
2022-08-26T03:32:12.053Z,4.03
2022-08-26T03:34:40.612Z,7.93
2022-08-26T03:37:08.999Z,5.47
2022-08-26T03:39:38.062Z,7.07
2022-08-26T03:42:06.993Z,4.03
2022-08-26T03:44:41.986Z,8.10
2022-08-26T03:47:10.755Z,7.57
2022-08-26T03:49:39.475Z,8.07
2022-08-26T03:52:08.161Z,8.90
2022-08-26T03:54:36.470Z,9.48
2022-08-26T03:57:05.165Z,4.70
2022-08-26T03:59:34.229Z,4.95
2022-08-26T04:02:04.067Z,4.45
2022-08-26T04:04:39.820Z,4.38
2022-08-26T04:07:08.658Z,7.38
2022-08-26T04:09:37.192Z,5.55
2022-08-26T04:12:06.499Z,6.20
2022-08-26T04:14:37.762Z,7.30
2022-08-26T04:17:08.805Z,3.47
2022-08-26T04:19:37.167Z,9.10
2022-08-26T04:22:05.843Z,3.38
2022-08-26T04:24:34.726Z,4.50
2022-08-26T04:27:03.717Z,4.50
2022-08-26T04:29:33.146Z,6.22
2022-08-26T04:32:03.713Z,4.50
2022-08-26T04:34:33.501Z,4.20
2022-08-26T04:37:02.602Z,4.68
2022-08-26T04:39:30.923Z,5.45
2022-08-26T04:42:01.698Z,5.72
2022-08-26T04:44:31.730Z,5.07
2022-08-26T04:47:00.307Z,4.13
2022-08-26T04:49:28.890Z,4.03
2022-08-26T04:52:06.127Z,5.20
2022-08-26T04:54:36.128Z,7.27
2022-08-26T04:57:04.712Z,7.10
2022-08-26T04:59:38.491Z,4.47
2022-08-26T05:02:07.920Z,6.88
2022-08-26T05:04:37.502Z,8.30
2022-08-26T05:07:08.133Z,5.03
2022-08-26T05:09:38.124Z,3.38
2022-08-26T05:12:07.074Z,4.28
2022-08-26T05:14:35.443Z,4.35
2022-08-26T05:17:03.962Z,7.15
2022-08-26T05:19:33.111Z,7.85
2022-08-26T05:22:01.476Z,6.85
2022-08-26T05:24:31.202Z,6.50
2022-08-26T05:26:59.544Z,3.90
2022-08-26T05:29:28.265Z,4.97
2022-08-26T05:31:56.586Z,6.63
2022-08-26T05:34:25.774Z,4.95
2022-08-26T05:36:58.559Z,8.25
2022-08-26T05:39:26.920Z,5.07
2022-08-26T05:41:56.664Z,4.65
2022-08-26T05:44:24.969Z,4.05
2022-08-26T05:46:53.418Z,8.43
2022-08-26T05:49:26.225Z,8.63
2022-08-26T05:51:54.782Z,5.90
2022-08-26T05:54:23.077Z,7.90
2022-08-26T05:56:52.485Z,5.18
2022-08-26T05:59:24.641Z,5.90
2022-08-26T06:01:53.464Z,4.82
2022-08-26T06:04:23.107Z,5.18
2022-08-26T06:06:55.074Z,3.60
2022-08-26T06:09:23.464Z,4.95
2022-08-26T06:11:52.127Z,5.47
2022-08-26T06:14:23.865Z,2.95
2022-08-26T06:16:52.272Z,3.17
2022-08-26T06:19:22.118Z,4.68
2022-08-26T06:21:54.063Z,3.70
2022-08-26T06:24:40.828Z,5.20
2022-08-26T06:27:13.894Z,7.22
2022-08-26T06:29:45.033Z,6.95
2022-08-26T06:32:13.389Z,4.97
2022-08-26T06:34:41.732Z,6.75
2022-08-26T06:37:10.066Z,4.53
2022-08-26T06:39:41.049Z,2.97
2022-08-26T06:42:11.079Z,6.77
2022-08-26T06:44:41.674Z,5.25
2022-08-26T06:47:14.520Z,4.38
2022-08-26T06:49:44.214Z,4.93
2022-08-26T06:52:12.770Z,5.93
2022-08-26T06:54:43.304Z,7.63
2022-08-26T06:57:13.015Z,3.83
2022-08-26T06:59:45.022Z,3.30
2022-08-26T07:02:15.235Z,4.88
2022-08-26T07:04:47.827Z,5.85
2022-08-26T07:07:16.913Z,5.55
2022-08-26T07:09:45.929Z,4.75
2022-08-26T07:12:14.323Z,4.80
2022-08-26T07:14:47.282Z,5.63
2022-08-26T07:17:17.846Z,5.57
2022-08-26T07:19:49.699Z,4.40
2022-08-26T07:22:18.830Z,6.18
2022-08-26T07:24:47.399Z,4.25
2022-08-26T07:27:18.025Z,5.65
2022-08-26T07:29:46.764Z,5.25
2022-08-26T07:32:20.243Z,4.68
2022-08-26T07:34:51.582Z,5.25
2022-08-26T07:37:20.675Z,3.27
2022-08-26T07:39:49.083Z,4.80
2022-08-26T07:42:20.507Z,5.28
2022-08-26T07:44:49.261Z,5.85
2022-08-26T07:47:25.086Z,5.47
2022-08-26T07:49:56.161Z,4.60
2022-08-26T07:52:26.984Z,3.80
2022-08-26T07:54:58.166Z,2.87
2022-08-26T07:57:27.040Z,2.78
2022-08-26T07:59:56.142Z,2.83
2022-08-26T08:02:28.188Z,6.07
2022-08-26T08:04:58.389Z,2.03
2022-08-26T08:07:38.368Z,2.40
2022-08-26T08:10:16.204Z,2.30
2022-08-26T08:12:44.968Z,2.47
2022-08-26T08:15:14.454Z,3.75
2022-08-26T08:17:45.109Z,2.25
2022-08-26T08:20:15.946Z,4.40
2022-08-26T08:22:44.827Z,2.40
2022-08-26T08:25:14.752Z,1.73
2022-08-26T08:27:46.429Z,2.10
2022-08-26T08:30:20.794Z,4.55
2022-08-26T08:32:53.149Z,2.97
2022-08-26T08:35:23.561Z,5.00
2022-08-26T08:37:54.791Z,3.55
2022-08-26T08:40:26.534Z,4.40
2022-08-26T08:43:02.442Z,5.57
2022-08-26T08:45:37.630Z,4.18
2022-08-26T08:48:14.810Z,6.15
2022-08-26T08:50:46.967Z,2.72
2022-08-26T08:53:22.682Z,3.27
2022-08-26T08:56:05.139Z,1.85
2022-08-26T08:58:51.526Z,4.18
2022-08-26T09:01:31.126Z,3.10
2022-08-26T09:04:26.036Z,1.92
2022-08-26T09:06:58.991Z,3.15
2022-08-26T09:09:36.988Z,2.25
2022-08-26T09:12:08.997Z,2.25
2022-08-26T09:14:37.728Z,2.72
2022-08-26T09:17:17.783Z,2.20
2022-08-26T09:19:53.467Z,3.13
2022-08-26T09:22:32.319Z,2.20
2022-08-26T09:25:01.517Z,2.25
2022-08-26T09:27:50.496Z,3.90
2022-08-26T09:30:27.327Z,3.90
2022-08-26T09:33:03.023Z,2.08
2022-08-26T09:35:43.512Z,3.63
2022-08-26T09:38:26.733Z,1.93
2022-08-26T09:40:59.696Z,3.57
2022-08-26T09:43:29.187Z,2.90
2022-08-26T09:46:15.093Z,4.38
2022-08-26T09:48:43.745Z,2.53
2022-08-26T09:51:33.873Z,3.85
2022-08-26T09:54:05.724Z,2.78
2022-08-26T09:56:39.524Z,3.90
2022-08-26T09:59:12.091Z,2.85
2022-08-26T10:01:43.273Z,4.00
2022-08-26T10:04:21.260Z,3.85
2022-08-26T10:07:00.186Z,2.78
2022-08-26T10:09:30.071Z,2.08
2022-08-26T10:12:05.405Z,4.00
2022-08-26T10:14:39.865Z,2.72
2022-08-26T10:17:15.812Z,1.88
2022-08-26T10:19:57.046Z,2.57
2022-08-26T10:22:35.732Z,2.85
2022-08-26T10:25:12.390Z,2.35
2022-08-26T10:27:53.779Z,2.53
2022-08-26T10:30:25.605Z,2.88
2022-08-26T10:32:58.915Z,2.00
2022-08-26T10:35:28.128Z,4.07
2022-08-26T10:38:03.976Z,3.28
2022-08-26T10:40:52.917Z,1.45
2022-08-26T10:43:26.507Z,4.57
2022-08-26T10:46:00.414Z,2.13
2022-08-26T10:48:38.591Z,4.38
2022-08-26T10:51:08.600Z,2.75
2022-08-26T10:53:51.416Z,3.90
2022-08-26T10:56:35.543Z,4.55
2022-08-26T10:59:12.476Z,4.82
2022-08-26T11:01:51.060Z,3.45
2022-08-26T11:04:48.342Z,3.03
2022-08-26T11:07:41.171Z,3.22
2022-08-26T11:11:04.616Z,3.08
2022-08-26T11:14:03.075Z,3.10
2022-08-26T11:16:42.793Z,2.13
2022-08-26T11:19:58.976Z,3.40
2022-08-26T11:22:31.112Z,2.63
2022-08-26T11:25:11.595Z,3.47
2022-08-26T11:27:59.691Z,3.30
2022-08-26T11:30:56.906Z,2.33
2022-08-26T11:33:58.142Z,3.20
2022-08-26T11:36:58.242Z,2.45
2022-08-26T11:39:36.747Z,4.35
2022-08-26T11:42:28.461Z,3.83
2022-08-26T11:44:58.390Z,2.50
2022-08-26T11:47:31.522Z,2.88
2022-08-26T11:50:13.755Z,1.88
2022-08-26T11:52:42.256Z,3.35
2022-08-26T11:55:16.282Z,2.58
2022-08-26T11:57:51.886Z,3.85
2022-08-26T12:00:24.437Z,4.17
2022-08-26T12:02:54.716Z,1.58
2022-08-26T12:05:30.845Z,2.75
2022-08-26T12:08:05.035Z,2.30
2022-08-26T12:10:37.116Z,4.65
2022-08-26T12:13:08.045Z,3.33
2022-08-26T12:15:36.915Z,4.13
2022-08-26T12:18:30.756Z,3.15
2022-08-26T12:21:12.321Z,2.40
2022-08-26T12:23:47.559Z,3.73
2022-08-26T12:26:28.811Z,1.65
2022-08-26T12:29:02.339Z,6.43
2022-08-26T12:31:49.750Z,2.13
2022-08-26T12:34:18.767Z,3.25
2022-08-26T12:36:50.909Z,2.30
2022-08-26T12:39:29.321Z,2.13
2022-08-26T12:42:01.376Z,3.67
2022-08-26T12:44:36.596Z,2.35
2022-08-26T12:47:10.443Z,3.75
2022-08-26T12:49:40.545Z,3.85
2022-08-26T12:52:30.932Z,3.90
2022-08-26T12:55:02.743Z,3.15
2022-08-26T12:57:36.221Z,1.67
2022-08-26T13:00:31.991Z,1.88
2022-08-26T13:03:01.997Z,1.70
2022-08-26T13:05:35.156Z,1.83
2022-08-26T13:08:16.623Z,3.33
2022-08-26T13:10:48.730Z,3.17
2022-08-26T13:13:18.390Z,3.70
2022-08-26T13:15:46.749Z,2.72
2022-08-26T13:18:15.089Z,2.40
2022-08-26T13:20:45.122Z,1.33
2022-08-26T13:23:14.138Z,3.13
2022-08-26T13:25:42.705Z,2.47
2022-08-26T13:28:11.028Z,1.73
2022-08-26T13:30:41.906Z,5.15
2022-08-26T13:33:12.252Z,2.70
2022-08-26T13:35:43.526Z,3.55
2022-08-26T13:38:22.309Z,3.50
2022-08-26T13:41:02.710Z,2.65
2022-08-26T13:43:31.912Z,3.15
2022-08-26T13:46:02.629Z,3.25
2022-08-26T13:48:31.548Z,2.37
2022-08-26T13:51:00.180Z,1.83
2022-08-26T13:53:29.507Z,1.80
2022-08-26T13:55:58.783Z,2.05
2022-08-26T13:58:27.903Z,1.80
2022-08-26T14:00:58.131Z,3.17
2022-08-26T14:03:28.152Z,3.90
2022-08-26T14:05:56.644Z,1.60
2022-08-26T14:08:25.333Z,2.47
2022-08-26T14:10:53.810Z,5.07
2022-08-26T14:13:22.618Z,1.63
2022-08-26T14:15:51.169Z,2.60
2022-08-26T14:18:24.188Z,3.15
2022-08-26T14:20:56.142Z,2.88
2022-08-26T14:23:24.851Z,2.60
2022-08-26T14:25:53.541Z,2.50
2022-08-26T14:28:21.939Z,2.00
2022-08-26T14:30:56.445Z,2.08
2022-08-26T14:33:29.109Z,1.58
2022-08-26T14:36:18.811Z,3.38
2022-08-26T14:38:47.584Z,2.47
2022-08-26T14:41:18.251Z,2.00
2022-08-26T14:43:54.528Z,3.00
2022-08-26T14:46:22.949Z,1.63
2022-08-26T14:48:51.275Z,3.33
2022-08-26T14:51:24.040Z,2.60
2022-08-26T14:54:10.896Z,1.97
2022-08-26T14:56:42.262Z,2.63
2022-08-26T14:59:10.755Z,2.15
2022-08-26T15:01:39.256Z,3.53
2022-08-26T15:04:07.816Z,2.70
2022-08-26T15:06:38.215Z,1.52
2022-08-26T15:09:07.361Z,6.10
2022-08-26T15:11:36.165Z,1.85
2022-08-26T15:14:04.651Z,1.73
2022-08-26T15:16:33.750Z,4.93
2022-08-26T15:19:04.513Z,1.65
2022-08-26T15:21:34.040Z,1.40
2022-08-26T15:24:05.056Z,1.13
2022-08-26T15:26:35.755Z,5.85
2022-08-26T15:29:05.317Z,2.30
2022-08-26T15:31:34.969Z,1.95
2022-08-26T15:34:07.598Z,1.50
2022-08-26T15:36:38.224Z,3.13
2022-08-26T15:39:09.456Z,2.38
2022-08-26T15:41:38.239Z,0.80
2022-08-26T15:44:09.177Z,1.35
2022-08-26T15:46:38.671Z,1.57
2022-08-26T15:49:07.681Z,2.53
2022-08-26T15:51:45.333Z,2.73
2022-08-26T15:54:18.134Z,2.28
2022-08-26T15:56:48.546Z,1.80
2022-08-26T15:59:17.788Z,3.10
2022-08-26T16:01:46.709Z,2.55
2022-08-26T16:04:15.487Z,2.25
2022-08-26T16:06:44.005Z,2.58
2022-08-26T16:09:12.986Z,1.40
2022-08-26T16:11:43.027Z,4.78
2022-08-26T16:14:11.408Z,1.15
2022-08-26T16:16:41.351Z,1.50
2022-08-26T16:19:11.589Z,2.60
2022-08-26T16:21:40.863Z,2.97
2022-08-26T16:24:09.347Z,2.13
2022-08-26T16:26:39.923Z,2.05
2022-08-26T16:29:12.688Z,1.40
2022-08-26T16:31:41.656Z,1.63
2022-08-26T16:34:10.932Z,0.85
2022-08-26T16:36:40.552Z,1.90
2022-08-26T16:39:10.072Z,1.30
2022-08-26T16:41:38.579Z,0.80
2022-08-26T16:44:11.453Z,3.65
2022-08-26T16:46:41.230Z,2.33
2022-08-26T16:49:09.677Z,1.50
2022-08-26T16:51:38.602Z,1.85
2022-08-26T16:54:08.983Z,2.97
2022-08-26T16:56:38.807Z,3.58
2022-08-26T16:59:11.515Z,3.27
2022-08-26T17:01:40.048Z,1.70
2022-08-26T17:04:08.591Z,1.42
2022-08-26T17:06:38.277Z,2.40
2022-08-26T17:09:06.974Z,12.82
2022-08-26T17:11:36.039Z,4.07
2022-08-26T17:14:05.390Z,1.63
2022-08-26T17:16:35.516Z,1.23
2022-08-26T17:19:05.589Z,2.33
2022-08-26T17:21:35.491Z,1.70
2022-08-26T17:24:05.024Z,1.95
2022-08-26T17:26:34.015Z,2.65
2022-08-26T17:29:02.376Z,0.70
2022-08-26T17:31:32.551Z,2.10
2022-08-26T17:34:02.292Z,1.42
2022-08-26T17:36:31.504Z,2.90
2022-08-26T17:39:00.419Z,1.90
2022-08-26T17:41:30.120Z,1.80
2022-08-26T17:43:58.831Z,2.72
2022-08-26T17:46:27.534Z,1.47
2022-08-26T17:48:56.406Z,1.30
2022-08-26T17:51:27.038Z,2.28
2022-08-26T17:53:55.752Z,1.38
2022-08-26T17:56:28.078Z,1.83
2022-08-26T17:59:02.267Z,1.13
2022-08-26T18:01:31.329Z,0.85
2022-08-26T18:04:00.974Z,1.13
2022-08-26T18:06:31.619Z,2.38
2022-08-26T18:09:00.646Z,3.05
2022-08-26T18:11:31.247Z,1.60
2022-08-26T18:14:00.406Z,1.33
2022-08-26T18:16:34.134Z,1.90
2022-08-26T18:19:02.572Z,1.70
2022-08-26T18:21:32.350Z,0.70
2022-08-26T18:24:00.715Z,3.03
2022-08-26T18:26:32.222Z,2.47
2022-08-26T18:29:01.884Z,2.05
2022-08-26T18:31:31.117Z,1.48
2022-08-26T18:34:01.562Z,3.15
2022-08-26T18:36:34.579Z,1.00
2022-08-26T18:39:04.793Z,3.15
2022-08-26T18:41:39.777Z,0.60
2022-08-26T18:44:12.942Z,2.70
2022-08-26T18:46:43.198Z,0.68
2022-08-26T18:49:13.461Z,1.65
2022-08-26T18:51:44.375Z,1.17
2022-08-26T18:54:13.564Z,0.90
2022-08-26T18:56:43.807Z,2.07
2022-08-26T18:59:13.619Z,0.85
2022-08-26T19:01:43.386Z,1.25
2022-08-26T19:04:15.387Z,0.73
2022-08-26T19:06:48.357Z,0.80
2022-08-26T19:09:17.882Z,1.10
2022-08-26T19:11:47.055Z,1.95
2022-08-26T19:14:19.308Z,1.00
2022-08-26T19:16:52.527Z,1.67
2022-08-26T19:19:23.884Z,1.23
2022-08-26T19:21:54.287Z,0.90
2022-08-26T19:24:27.433Z,0.75
2022-08-26T19:27:00.826Z,1.20
2022-08-26T19:29:32.155Z,2.40
2022-08-26T19:32:00.948Z,1.33
2022-08-26T19:34:29.550Z,1.13
2022-08-26T19:36:59.336Z,2.70
2022-08-26T19:39:28.596Z,2.72
2022-08-26T19:41:56.988Z,1.92
2022-08-26T19:44:42.707Z,0.95
2022-08-26T19:47:13.411Z,2.15
2022-08-26T19:49:41.779Z,1.77
2022-08-26T19:52:12.261Z,2.65
2022-08-26T19:54:41.506Z,1.35
2022-08-26T19:57:11.137Z,2.70
2022-08-26T19:59:40.250Z,1.50
2022-08-26T20:02:11.044Z,1.70
2022-08-26T20:04:41.614Z,1.43
2022-08-26T20:07:14.225Z,1.23
2022-08-26T20:09:45.045Z,1.23
2022-08-26T20:12:13.693Z,1.73
2022-08-26T20:14:43.003Z,2.15
2022-08-26T20:17:12.117Z,1.50
2022-08-26T20:19:57.818Z,1.15
2022-08-26T20:22:28.217Z,3.77
2022-08-26T20:24:56.639Z,1.25
2022-08-26T20:27:34.337Z,2.05
2022-08-26T20:30:09.397Z,1.48
2022-08-26T20:32:38.552Z,2.53
2022-08-26T20:35:10.653Z,1.65
2022-08-26T20:37:40.821Z,0.80
2022-08-26T20:40:13.189Z,1.30
2022-08-26T20:42:41.713Z,0.60
2022-08-26T20:45:11.528Z,2.73
2022-08-26T20:47:39.937Z,1.60
2022-08-26T20:50:09.337Z,3.20
2022-08-26T20:52:39.079Z,2.35
2022-08-26T20:55:08.672Z,1.70
2022-08-26T20:57:37.364Z,1.23
2022-08-26T21:00:07.710Z,1.80
2022-08-26T21:02:37.063Z,1.88
2022-08-26T21:05:06.592Z,2.33
2022-08-26T21:07:36.958Z,0.98
2022-08-26T21:10:07.607Z,2.10
2022-08-26T21:12:36.841Z,1.15
2022-08-26T21:15:07.462Z,2.57
2022-08-26T21:17:36.613Z,2.60
2022-08-26T21:20:06.041Z,2.20
2022-08-26T21:22:34.469Z,2.33
2022-08-26T21:25:03.025Z,1.20
2022-08-26T21:27:33.156Z,1.45
2022-08-26T21:30:01.508Z,1.50
2022-08-26T21:32:29.890Z,1.73
2022-08-26T21:34:59.719Z,3.17
2022-08-26T21:37:29.437Z,2.60
2022-08-26T21:40:01.938Z,3.40
2022-08-26T21:42:35.796Z,1.60
2022-08-26T21:45:05.602Z,2.53
2022-08-26T21:47:34.006Z,3.50
2022-08-26T21:50:02.460Z,2.40
2022-08-26T21:52:30.831Z,3.33
2022-08-26T21:55:00.302Z,1.70
2022-08-26T21:57:30.264Z,1.50
2022-08-26T22:00:00.490Z,1.58
2022-08-26T22:02:33.173Z,4.10
2022-08-26T22:05:01.560Z,1.40
2022-08-26T22:07:29.939Z,1.98
2022-08-26T22:09:58.279Z,0.70
2022-08-26T22:12:26.616Z,1.80
2022-08-26T22:14:55.691Z,2.45
2022-08-26T22:17:26.509Z,4.80
2022-08-26T22:19:55.169Z,1.55
2022-08-26T22:22:26.298Z,2.47
2022-08-26T22:24:54.703Z,1.27
2022-08-26T22:27:23.125Z,3.63
2022-08-26T22:29:51.551Z,2.20
2022-08-26T22:32:20.016Z,3.67
2022-08-26T22:34:49.739Z,2.42
2022-08-26T22:37:18.119Z,2.28
2022-08-26T22:39:46.439Z,1.55
2022-08-26T22:42:15.467Z,3.65
2022-08-26T22:44:44.128Z,0.90
2022-08-26T22:47:12.562Z,2.30
2022-08-26T22:49:40.881Z,1.00
2022-08-26T22:52:10.598Z,1.95
2022-08-26T22:54:40.174Z,1.67
2022-08-26T22:57:09.842Z,1.08
2022-08-26T22:59:39.451Z,1.02
2022-08-26T23:02:12.128Z,2.33
2022-08-26T23:04:42.787Z,1.67
2022-08-26T23:07:13.882Z,1.10
2022-08-26T23:09:43.633Z,1.77
2022-08-26T23:12:13.757Z,1.35
2022-08-26T23:14:43.976Z,2.40
2022-08-26T23:17:14.391Z,1.67
2022-08-26T23:19:44.191Z,1.05
2022-08-26T23:22:16.926Z,2.20
2022-08-26T23:24:46.711Z,1.90
2022-08-26T23:27:16.738Z,0.75
2022-08-26T23:29:46.535Z,2.80
2022-08-26T23:32:15.196Z,0.80
2022-08-26T23:34:59.622Z,1.40
2022-08-26T23:37:33.572Z,2.03
2022-08-26T23:40:06.911Z,2.25
2022-08-26T23:42:36.219Z,2.00
2022-08-26T23:45:05.748Z,4.20
2022-08-26T23:47:34.627Z,1.80
2022-08-26T23:50:03.268Z,2.00
2022-08-26T23:52:50.622Z,2.22
2022-08-26T23:55:19.297Z,2.13
2022-08-26T23:57:47.981Z,2.17
